Verkhniy Tagil, Russia
Current Conditions -  °F | °C
As of 6:00 PM on Thursday 30 Oct 2014 (Local Time) from USSS Reporting Station
Clear Clear  
Wind Chill: 31°   Ceiling: Unl
Heat Index: 37°   Visibility: 6mi
Dew Point: 36°   Wind: 9mph
Humidity: 93%   Direction: 260°W
Pressure: 30.06"   Gusts: NA
Location:  57.38°N, 59.96°E
Report Text: USSS 301300Z 26004MPS CAVOK 03/02 Q1018 7625//45 NOSIG RMKQFE743
Loading
Personal Weather Stations






























Interactive Weather Map
Tropical Storm Tracking
New forecast layout! Learn more

10-Day Weather Forecast

Advertisements
Track Severe Weather on mobile